Time;durP1;ratioP1;P1;durP2;ratioP2;P2;SDS_P1;SDS_P2;PMS_P1;PMS_P2;Temp;Humidity;BMP_temperature;BMP_pressure;BME280_temperature;BME280_humidity;BME280_pressure;Samples;Min_cycle;Max_cycle;Signal;HPM_P1;HPM_P2
2023/10/09 00:01:50;;;;;;;8.70;6.57;;;;;;;13.29;84.22;98818.47;5038891;28;20067;-75
2023/10/09 00:04:16;;;;;;;8.73;6.60;;;;;;;13.11;84.39;98770.88;5037776;28;20119;-75
2023/10/09 00:06:42;;;;;;;8.57;6.75;;;;;;;13.18;84.13;98779.63;5037514;28;20171;-74
2023/10/09 00:11:48;;;;;;;11.00;7.20;;;;;;;13.31;84.24;98791.97;5044030;28;20065;-72
2023/10/09 00:14:15;;;;;;;10.88;7.25;;;;;;;13.29;84.47;98777.88;5071641;28;20056;-71
2023/10/09 00:16:48;;;;;;;12.88;8.63;;;;;;;13.37;84.05;98785.59;5050908;28;20099;-71
2023/10/09 00:19:14;;;;;;;12.20;8.95;;;;;;;13.42;84.35;98777.56;5042026;28;20032;-71
2023/10/09 00:21:41;;;;;;;14.05;9.25;;;;;;;13.41;85.14;98765.09;5037317;28;20440;-72
2023/10/09 00:24:13;;;;;;;16.02;9.60;;;;;;;13.43;84.94;98761.06;5050561;28;20500;-71
2023/10/09 00:26:44;;;;;;;11.70;9.35;;;;;;;13.42;85.81;98750.50;5048890;28;20037;-71
2023/10/09 00:29:21;;;;;;;14.70;9.63;;;;;;;13.38;85.68;98742.06;5071647;28;20639;-72
2023/10/09 00:34:41;;;;;;;12.45;9.57;;;;;;;13.33;85.92;98741.16;5056405;28;20060;-73
2023/10/09 00:37:16;;;;;;;16.08;9.90;;;;;;;13.35;85.88;98737.13;5054149;28;20468;-74
2023/10/09 00:39:43;;;;;;;16.73;10.75;;;;;;;13.30;86.66;98726.25;5037946;28;20032;-73
2023/10/09 00:42:14;;;;;;;16.42;10.82;;;;;;;13.41;86.44;98741.56;5037670;28;20028;-73
2023/10/09 00:44:42;;;;;;;16.33;11.07;;;;;;;13.43;86.45;98727.78;5053815;28;20043;-73
2023/10/09 00:47:20;;;;;;;15.75;11.15;;;;;;;13.37;86.64;98715.25;5053237;28;20020;-72
2023/10/09 00:49:58;;;;;;;14.88;10.85;;;;;;;13.57;85.96;98727.19;5050585;28;20052;-72
2023/10/09 00:52:36;;;;;;;15.15;11.25;;;;;;;13.61;86.23;98728.31;5044393;28;20047;-72
2023/10/09 00:55:04;;;;;;;15.80;11.70;;;;;;;13.62;86.60;98729.94;5026537;28;20073;-72
2023/10/09 00:57:33;;;;;;;15.02;10.68;;;;;;;13.62;86.83;98721.84;5053223;28;20017;-73
2023/10/09 00:59:59;;;;;;;14.50;11.15;;;;;;;13.56;86.54;98709.28;5055803;28;20040;-73
2023/10/09 01:02:35;;;;;;;19.38;11.65;;;;;;;13.58;86.55;98696.31;5072838;28;20028;-71
2023/10/09 01:05:11;;;;;;;15.40;10.65;;;;;;;13.71;86.87;98712.19;5038805;28;20838;-73
2023/10/09 01:07:39;;;;;;;16.30;10.73;;;;;;;13.77;86.71;98705.78;5055575;28;20432;-72
2023/10/09 01:10:09;;;;;;;16.45;10.55;;;;;;;13.78;86.59;98699.28;5034559;28;20083;-72
2023/10/09 01:12:41;;;;;;;17.15;11.27;;;;;;;13.78;86.57;98691.16;5034063;28;20041;-71
2023/10/09 01:15:07;;;;;;;15.27;10.30;;;;;;;13.83;86.36;98687.72;5048220;28;20082;-72
2023/10/09 01:17:35;;;;;;;15.20;10.60;;;;;;;13.83;86.35;98683.13;5053463;28;20032;-72
2023/10/09 01:20:15;;;;;;;16.30;11.38;;;;;;;13.81;86.58;98690.69;5053788;28;20031;-72
2023/10/09 01:22:43;;;;;;;17.15;11.13;;;;;;;13.75;86.67;98686.25;5039617;28;20041;-72
2023/10/09 01:25:08;;;;;;;15.35;10.48;;;;;;;13.46;86.73;98638.81;5065511;28;20025;-73
2023/10/09 01:27:34;;;;;;;19.27;11.43;;;;;;;13.59;87.00;98662.78;5037360;28;20415;-73
2023/10/09 01:30:00;;;;;;;15.05;10.52;;;;;;;13.60;87.39;98667.13;5053229;28;20021;-73
2023/10/09 01:32:26;;;;;;;15.05;10.82;;;;;;;13.65;87.72;98674.50;5051086;28;20049;-75
2023/10/09 01:34:54;;;;;;;16.75;10.50;;;;;;;13.66;87.24;98660.72;5049444;28;20545;-72
2023/10/09 01:37:28;;;;;;;16.15;11.55;;;;;;;13.61;87.44;98666.06;5054727;28;20116;-71
2023/10/09 01:39:59;;;;;;;16.85;11.38;;;;;;;13.56;87.67;98649.75;5055957;28;20039;-72
2023/10/09 01:42:34;;;;;;;17.90;11.10;;;;;;;13.58;87.74;98653.03;5054454;28;20386;-72
2023/10/09 01:45:26;;;;;;;19.15;11.57;;;;;;;13.61;88.12;98641.69;5054966;28;20396;-71
2023/10/09 01:48:07;;;;;;;16.42;10.90;;;;;;;13.58;88.72;98639.47;5051531;28;20036;-71
2023/10/09 01:50:35;;;;;;;16.63;11.18;;;;;;;13.55;88.56;98626.47;5058117;28;20044;-73
2023/10/09 01:53:01;;;;;;;14.48;11.07;;;;;;;13.66;88.20;98635.53;5053787;28;20025;-72
2023/10/09 01:55:34;;;;;;;17.13;12.23;;;;;;;13.75;88.64;98634.81;5054912;28;20088;-72
2023/10/09 01:58:05;;;;;;;17.08;12.13;;;;;;;13.80;88.49;98626.75;5054007;28;20029;-72
2023/10/09 02:00:41;;;;;;;17.52;11.43;;;;;;;13.68;89.04;98609.84;5068272;28;20127;-73
2023/10/09 02:03:12;;;;;;;19.48;12.25;;;;;;;13.71;89.32;98617.47;5055211;28;20028;-71
2023/10/09 02:05:37;;;;;;;19.27;11.90;;;;;;;13.84;89.09;98630.59;5023679;28;20443;-74
2023/10/09 02:08:05;;;;;;;21.05;11.45;;;;;;;13.79;88.86;98622.41;5023647;28;20020;-72
2023/10/09 02:13:00;;;;;;;16.42;12.00;;;;;;;13.81;88.87;98625.69;5057718;28;20109;-73
2023/10/09 02:15:51;;;;;;;17.65;11.45;;;;;;;13.95;88.64;98647.78;5040768;28;20038;-72
2023/10/09 02:21:00;;;;;;;19.88;12.00;;;;;;;13.91;88.65;98640.41;5038077;28;20033;-74
2023/10/09 02:23:38;;;;;;;20.70;11.05;;;;;;;13.92;88.63;98642.03;5069783;28;20519;-73
2023/10/09 02:26:06;;;;;;;20.80;13.38;;;;;;;13.72;88.24;98621.00;5053727;28;20049;-71
2023/10/09 02:28:33;;;;;;;16.63;11.77;;;;;;;13.81;88.69;98641.94;5056849;28;20034;-73
2023/10/09 02:31:09;;;;;;;16.60;12.52;;;;;;;13.91;88.61;98646.63;5054118;28;20045;-74
2023/10/09 02:33:36;;;;;;;18.27;12.70;;;;;;;13.77;88.30;98619.13;5040605;28;20443;-73
2023/10/09 02:36:08;;;;;;;19.73;13.00;;;;;;;13.79;88.52;98625.13;5040404;28;20055;-73
2023/10/09 02:38:38;;;;;;;20.85;13.13;;;;;;;13.81;87.95;98641.94;5036535;28;20033;-72
2023/10/09 02:43:40;;;;;;;18.98;12.25;;;;;;;13.81;88.02;98655.47;5052076;28;20056;-71
2023/10/09 02:46:19;;;;;;;19.63;12.63;;;;;;;13.80;87.66;98655.72;5050739;28;20037;-72
2023/10/09 02:48:52;;;;;;;17.80;13.00;;;;;;;13.73;87.43;98645.09;5055880;28;20036;-74
2023/10/09 02:51:32;;;;;;;18.77;12.80;;;;;;;13.72;88.04;98638.03;5056335;28;20032;-72
2023/10/09 02:54:18;;;;;;;17.35;12.63;;;;;;;13.77;87.29;98654.34;5037893;28;20033;-72
2023/10/09 02:56:57;;;;;;;18.10;12.32;;;;;;;13.69;87.86;98649.38;5053995;28;20029;-72
2023/10/09 02:59:23;;;;;;;19.45;12.88;;;;;;;13.67;87.64;98645.28;5053001;28;20051;-73
2023/10/09 03:01:49;;;;;;;21.05;13.15;;;;;;;13.66;87.28;98649.06;5052554;28;20033;-72
2023/10/09 03:04:15;;;;;;;19.77;12.35;;;;;;;13.63;87.04;98647.66;5053031;28;20041;-73
2023/10/09 03:07:00;;;;;;;18.75;12.82;;;;;;;13.55;87.33;98631.91;5073429;28;20067;-72
2023/10/09 03:09:29;;;;;;;22.67;12.82;;;;;;;13.60;87.05;98641.97;5055732;28;20035;-72
2023/10/09 03:12:02;;;;;;;22.15;13.15;;;;;;;13.52;86.96;98621.56;5040720;28;20033;-75
2023/10/09 03:14:30;;;;;;;20.48;13.68;;;;;;;13.32;87.17;98586.16;5055427;28;20033;-74
2023/10/09 03:16:56;;;;;;;25.95;16.42;;;;;;;13.33;87.21;98595.06;5045032;28;20081;-74
2023/10/09 03:19:22;;;;;;;27.25;17.00;;;;;;;13.30;87.28;98595.59;5031336;28;20116;-73
2023/10/09 03:21:47;;;;;;;26.55;16.20;;;;;;;13.18;87.24;98587.59;5044987;28;20098;-74
2023/10/09 03:24:13;;;;;;;20.98;14.30;;;;;;;13.24;87.25;98597.41;5036640;28;20520;-74
2023/10/09 03:26:38;;;;;;;23.42;16.00;;;;;;;13.10;86.94;98574.50;5071982;28;20025;-75
2023/10/09 03:29:09;;;;;;;21.00;15.45;;;;;;;13.17;87.33;98596.78;5068317;28;20075;-72
2023/10/09 03:31:36;;;;;;;23.90;15.70;;;;;;;13.13;87.31;98595.66;5074243;28;20051;-72
2023/10/09 03:34:02;;;;;;;23.77;15.10;;;;;;;13.10;87.68;98585.31;5039632;28;20031;-73
2023/10/09 03:36:30;;;;;;;20.45;13.32;;;;;;;13.15;87.77;98594.34;5074338;28;20028;-71
2023/10/09 03:38:57;;;;;;;22.88;16.13;;;;;;;13.10;87.94;98579.91;5055944;28;20020;-71
2023/10/09 03:41:26;;;;;;;21.95;14.23;;;;;;;13.04;87.51;98576.31;5054903;28;20040;-72
2023/10/09 03:43:52;;;;;;;22.85;15.00;;;;;;;13.08;87.72;98599.13;5053297;28;20027;-72
2023/10/09 03:46:32;;;;;;;21.02;13.80;;;;;;;12.94;87.45;98580.75;5056121;28;20036;-73
2023/10/09 03:49:00;;;;;;;25.20;16.65;;;;;;;13.08;87.99;98587.47;5066926;28;20102;-72
2023/10/09 03:51:27;;;;;;;26.50;15.52;;;;;;;13.02;87.08;98583.03;5055867;28;20092;-71
2023/10/09 03:53:55;;;;;;;17.60;13.05;;;;;;;12.98;87.49;98576.47;5073743;28;20039;-71
2023/10/09 03:56:24;;;;;;;26.17;14.70;;;;;;;12.86;87.62;98568.47;5041673;28;20015;-71
2023/10/09 03:58:50;;;;;;;22.23;16.00;;;;;;;12.97;87.27;98591.09;5044480;28;20047;-71
2023/10/09 04:01:27;;;;;;;20.00;14.35;;;;;;;12.94;87.50;98597.81;5072913;28;20058;-72
2023/10/09 04:03:58;;;;;;;22.33;14.52;;;;;;;12.79;87.71;98578.66;5036428;28;20025;-71
2023/10/09 04:06:30;;;;;;;21.10;15.05;;;;;;;12.88;87.46;98595.28;5055814;28;20047;-70
2023/10/09 04:08:56;;;;;;;21.60;15.32;;;;;;;12.91;87.97;98597.47;5054715;28;21515;-70
2023/10/09 04:11:24;;;;;;;24.83;16.60;;;;;;;12.95;87.82;98598.63;5072351;28;20084;-70
2023/10/09 04:13:51;;;;;;;21.02;14.00;;;;;;;12.97;87.92;98596.50;5072279;28;20036;-71
2023/10/09 04:16:33;;;;;;;21.73;14.75;;;;;;;12.89;87.86;98577.97;5054137;28;20094;-70
2023/10/09 04:19:11;;;;;;;24.92;15.85;;;;;;;12.96;87.51;98601.06;5071334;28;20032;-70
2023/10/09 04:21:37;;;;;;;24.05;16.42;;;;;;;12.94;87.61;98602.38;5055197;28;20540;-71
2023/10/09 04:26:44;;;;;;;24.38;17.83;;;;;;;12.77;87.57;98558.34;5071804;28;20392;-70
2023/10/09 04:29:10;;;;;;;33.83;19.77;;;;;;;12.67;88.21;98564.44;5071317;28;20029;-71
2023/10/09 04:31:37;;;;;;;24.75;17.30;;;;;;;12.64;87.65;98577.63;5059758;28;20025;-71
2023/10/09 04:36:53;;;;;;;42.20;22.95;;;;;;;12.54;88.22;98563.97;5056390;28;20037;-74
2023/10/09 04:44:59;;;;;;;35.10;21.92;;;;;;;12.40;88.75;98569.72;5051291;28;20602;-75
2023/10/09 04:47:38;;;;;;;36.05;21.63;;;;;;;12.43;88.66;98574.63;5039063;28;20036;-77
2023/10/09 04:50:14;;;;;;;39.42;28.98;;;;;;;12.41;89.45;98576.78;5034408;28;20041;-73
2023/10/09 05:03:06;;;;;;;154.10;102.90;;;;;;;12.47;89.72;98572.25;5067168;28;20055;-74
2023/10/09 05:08:28;;;;;;;96.68;63.03;;;;;;;12.56;89.57;98578.84;5052808;28;20032;-74
2023/10/09 05:16:37;;;;;;;52.70;36.25;;;;;;;12.58;88.90;98584.84;5046138;28;20036;-74
2023/10/09 05:18:59;;;;;;;45.38;29.38;;;;;;;12.60;89.61;98584.59;5058689;28;20514;-74
2023/10/09 05:21:47;;;;;;;42.03;28.40;;;;;;;12.63;88.86;98578.69;5053933;28;20123;-74
2023/10/09 05:32:04;;;;;;;30.65;21.23;;;;;;;12.43;89.06;98569.22;5055187;28;20029;-76
2023/10/09 05:34:34;;;;;;;33.10;21.80;;;;;;;12.52;89.22;98576.91;5040313;28;20037;-76
2023/10/09 05:48:17;;;;;;;60.65;34.55;;;;;;;12.52;88.54;98571.50;5070956;28;20086;-74
2023/10/09 06:04:20;;;;;;;29.05;18.20;;;;;;;12.45;88.24;98577.91;5029716;28;20594;-72
2023/10/09 06:06:46;;;;;;;33.65;20.73;;;;;;;12.34;88.22;98559.91;5073870;28;20021;-74
2023/10/09 06:19:26;;;;;;;27.73;17.80;;;;;;;12.57;88.79;98595.91;5073468;28;20077;-74
2023/10/09 06:24:26;;;;;;;26.05;16.98;;;;;;;12.67;88.93;98612.28;5055846;28;20032;-74
2023/10/09 06:27:12;;;;;;;27.48;18.83;;;;;;;12.74;88.67;98604.81;5056186;28;20060;-74
2023/10/09 06:35:15;;;;;;;22.73;15.73;;;;;;;12.91;90.07;98602.88;5052156;28;20029;-74
2023/10/09 06:43:09;;;;;;;35.08;19.05;;;;;;;13.09;90.06;98610.75;5033320;28;20028;-74
2023/10/09 06:45:45;;;;;;;22.00;16.55;;;;;;;13.23;90.31;98612.03;5052475;28;20550;-74
2023/10/09 06:51:12;;;;;;;24.38;16.30;;;;;;;13.47;89.95;98616.09;5073024;28;20063;-75
2023/10/09 06:56:26;;;;;;;23.55;16.48;;;;;;;13.63;90.32;98604.38;5071780;28;20396;-74
2023/10/09 06:58:55;;;;;;;24.70;17.13;;;;;;;13.73;90.48;98598.25;5057176;28;20052;-74
2023/10/09 07:07:20;;;;;;;20.58;14.50;;;;;;;14.05;90.38;98611.84;5010831;28;20065;-74
2023/10/09 07:12:33;;;;;;;25.85;14.95;;;;;;;14.17;90.14;98591.63;5044271;28;20044;-73
2023/10/09 07:20:09;;;;;;;22.20;14.57;;;;;;;14.47;90.19;98634.47;5069683;28;20024;-73
2023/10/09 07:22:39;;;;;;;;;;;;;;;14.31;90.65;98629.97;5073074;28;20036;-73
2023/10/09 07:25:15;;;;;;;29.80;22.02;;;;;;;14.40;90.14;98601.34;5071033;28;19918;-73
2023/10/09 07:27:43;;;;;;;20.88;14.45;;;;;;;14.47;90.17;98629.03;5054133;28;20136;-73
2023/10/09 07:38:19;;;;;;;17.90;11.27;;;;;;;14.80;89.62;98645.03;5054524;28;20040;-74
2023/10/09 07:43:38;;;;;;;18.70;12.27;;;;;;;14.87;89.49;98623.09;5057179;28;20040;-74
2023/10/09 07:48:52;;;;;;;17.80;11.55;;;;;;;15.08;88.88;98633.00;5054022;28;20024;-74
2023/10/09 07:51:22;;;;;;;17.75;11.40;;;;;;;15.10;88.96;98634.38;5053039;28;20094;-74
2023/10/09 07:53:56;;;;;;;20.58;11.90;;;;;;;15.07;88.91;98632.19;5072130;28;20106;-74
2023/10/09 07:56:30;;;;;;;19.27;11.57;;;;;;;15.03;89.05;98628.34;5054877;28;20469;-73
2023/10/09 07:59:00;;;;;;;22.88;11.50;;;;;;;15.11;89.38;98640.63;5037791;28;20044;-73
2023/10/09 08:03:57;;;;;;;16.13;11.13;;;;;;;15.04;88.85;98642.75;5054450;28;20024;-74
2023/10/09 08:06:38;;;;;;;17.58;10.80;;;;;;;15.19;88.50;98669.97;5053834;28;20124;-73
2023/10/09 08:12:13;;;;;;;19.67;11.27;;;;;;;15.16;88.53;98676.75;5051068;28;20031;-74
2023/10/09 08:14:43;;;;;;;15.25;10.38;;;;;;;15.01;88.59;98641.38;5066357;28;20033;-73
2023/10/09 08:17:13;;;;;;;15.75;10.10;;;;;;;15.21;88.34;98673.25;5036974;28;20563;-74
2023/10/09 08:19:56;;;;;;;15.75;9.93;;;;;;;15.26;88.43;98675.16;5053710;28;20036;-73
2023/10/09 08:24:58;;;;;;;15.88;10.38;;;;;;;15.28;88.50;98652.13;5052724;28;20036;-74
2023/10/09 08:33:02;;;;;;;14.60;8.98;;;;;;;15.41;88.01;98664.38;5056133;28;20111;-73
2023/10/09 08:35:47;;;;;;;17.40;8.90;;;;;;;15.49;87.92;98681.03;5015871;28;20480;-73
2023/10/09 08:38:13;;;;;;;13.77;8.65;;;;;;;15.51;87.37;98667.19;5037695;28;20037;-73
2023/10/09 08:40:40;;;;;;;13.35;8.18;;;;;;;15.62;86.86;98655.28;5036962;28;20028;-73
2023/10/09 08:43:18;;;;;;;14.68;9.07;;;;;;;15.63;87.11;98671.31;5053357;28;20484;-73
2023/10/09 08:45:47;;;;;;;16.23;8.55;;;;;;;15.70;86.87;98679.22;5035181;28;20101;-74
2023/10/09 08:48:17;;;;;;;14.57;8.63;;;;;;;15.61;87.21;98678.91;5034795;28;20033;-73
2023/10/09 08:50:46;;;;;;;14.45;8.48;;;;;;;15.74;86.89;98688.47;5049221;28;20059;-73
2023/10/09 08:53:16;;;;;;;16.48;8.63;;;;;;;15.74;86.60;98681.16;5037103;28;20070;-73
2023/10/09 08:55:42;;;;;;;19.50;9.07;;;;;;;15.86;86.48;98689.06;5053829;28;20041;-73
2023/10/09 09:01:02;;;;;;;12.32;7.95;;;;;;;15.74;86.26;98656.69;5048959;28;20114;-73
2023/10/09 09:03:38;;;;;;;13.93;7.90;;;;;;;15.86;86.07;98680.91;5053334;28;20486;-73
2023/10/09 09:06:04;;;;;;;16.33;7.75;;;;;;;15.82;86.66;98683.34;5053207;28;20036;-74
2023/10/09 09:08:31;;;;;;;14.45;7.95;;;;;;;15.83;87.15;98676.00;5049686;28;20025;-72
2023/10/09 09:11:12;;;;;;;9.93;7.85;;;;;;;15.85;87.03;98671.13;5052437;28;20042;-74
2023/10/09 09:13:48;;;;;;;15.07;8.77;;;;;;;15.71;87.30;98661.84;5049996;28;20539;-73
2023/10/09 09:16:18;;;;;;;15.23;7.78;;;;;;;15.72;86.91;98658.88;5042404;28;20071;-73
2023/10/09 09:19:00;;;;;;;15.98;7.90;;;;;;;15.92;86.31;98674.41;5052512;28;20439;-73
2023/10/09 09:21:27;;;;;;;19.77;8.27;;;;;;;15.97;86.37;98687.19;5049862;28;20045;-73
2023/10/09 09:23:56;;;;;;;16.55;8.68;;;;;;;16.00;85.79;98686.66;5053195;28;20024;-73
2023/10/09 09:26:37;;;;;;;17.02;8.60;;;;;;;15.85;85.85;98669.22;5070941;28;20055;-72
2023/10/09 09:29:07;;;;;;;14.27;8.75;;;;;;;15.92;85.85;98682.56;5041213;28;20029;-74
2023/10/09 09:31:37;;;;;;;15.02;9.70;;;;;;;15.97;85.92;98693.44;5051165;28;20037;-72
2023/10/09 09:34:13;;;;;;;16.00;8.73;;;;;;;16.01;85.63;98691.03;5070947;28;20411;-73
2023/10/09 09:36:59;;;;;;;;;;;;;;;15.82;85.76;98696.91;5054560;28;20029;-73
2023/10/09 09:39:27;;;;;;;28.50;13.60;;;;;;;15.90;85.58;98687.44;5051954;28;20107;-72
2023/10/09 09:41:58;;;;;;;23.05;13.00;;;;;;;15.89;85.62;98685.81;5036460;28;20031;-74
2023/10/09 09:44:30;;;;;;;34.38;21.38;;;;;;;15.99;85.51;98702.13;5033056;28;20072;-73
2023/10/09 09:46:57;;;;;;;34.83;23.65;;;;;;;15.95;85.80;98695.63;5040256;28;20044;-73
2023/10/09 09:49:23;;;;;;;25.92;16.92;;;;;;;16.09;85.82;98702.19;5029563;28;20029;-73
2023/10/09 09:51:48;;;;;;;35.33;22.80;;;;;;;16.11;85.81;98691.84;5038228;28;20112;-73
2023/10/09 09:54:17;;;;;;;29.98;15.95;;;;;;;15.84;85.57;98628.75;5031413;28;20458;-73
2023/10/09 09:56:50;;;;;;;27.88;18.60;;;;;;;16.05;85.81;98673.91;5055685;28;20111;-73
2023/10/09 09:59:21;;;;;;;19.75;14.02;;;;;;;16.25;86.05;98700.31;5039483;28;20045;-73
2023/10/09 10:01:56;;;;;;;21.70;12.32;;;;;;;16.30;85.60;98687.56;5037145;28;20675;-72
2023/10/09 10:04:24;;;;;;;18.45;11.50;;;;;;;16.24;85.63;98680.47;5039645;28;20105;-73
2023/10/09 10:06:51;;;;;;;18.77;10.15;;;;;;;16.27;85.44;98681.81;5056229;28;20067;-73
2023/10/09 10:09:38;;;;;;;14.50;10.15;;;;;;;16.37;84.77;98699.00;5039523;28;20086;-72
2023/10/09 10:12:10;;;;;;;28.73;17.08;;;;;;;16.38;85.15;98695.16;5050995;28;20044;-73
2023/10/09 10:15:14;;;;;;;22.83;14.20;;;;;;;16.39;84.40;98685.94;5052948;28;20045;-73
2023/10/09 10:18:07;;;;;;;19.05;11.80;;;;;;;16.43;84.42;98680.75;5041721;28;20085;-74
2023/10/09 10:20:32;;;;;;;13.32;7.63;;;;;;;16.56;84.29;98686.53;5039440;28;20499;-74
2023/10/09 10:23:19;;;;;;;9.95;6.60;;;;;;;16.67;84.33;98681.09;5052602;28;20056;-74
2023/10/09 10:25:49;;;;;;;13.57;7.38;;;;;;;16.72;84.22;98651.16;5060013;28;20210;-74
2023/10/09 10:31:07;;;;;;;12.70;7.05;;;;;;;16.92;83.65;98634.84;5058956;28;20064;-74
2023/10/09 10:33:58;;;;;;;14.60;7.50;;;;;;;17.04;83.27;98649.78;5056129;28;20039;-76
2023/10/09 10:36:26;;;;;;;10.80;7.53;;;;;;;17.14;83.68;98638.06;5073732;28;20385;-75
2023/10/09 10:39:10;;;;;;;13.77;7.95;;;;;;;17.26;83.04;98635.84;5055627;28;20544;-75
2023/10/09 10:41:39;;;;;;;14.65;7.55;;;;;;;17.49;82.85;98646.13;5055882;28;20454;-74
2023/10/09 10:46:54;;;;;;;13.98;7.30;;;;;;;17.55;82.30;98634.13;5045439;28;20072;-75
2023/10/09 10:49:23;;;;;;;13.10;8.00;;;;;;;17.46;82.03;98630.34;5051357;28;20114;-74
2023/10/09 10:51:58;;;;;;;12.35;7.15;;;;;;;17.48;81.60;98633.59;5052241;28;20045;-74
2023/10/09 10:57:00;;;;;;;13.80;7.43;;;;;;;17.35;81.77;98627.91;5073574;28;20029;-74
2023/10/09 10:59:33;;;;;;;15.77;7.03;;;;;;;17.37;81.73;98642.06;5073117;28;20120;-74
2023/10/09 11:07:09;;;;;;;14.63;6.90;;;;;;;17.14;82.22;98651.66;5072067;28;20028;-74
2023/10/09 11:18:07;;;;;;;15.73;7.55;;;;;;;17.20;81.96;98648.66;5051533;28;20032;-74
2023/10/09 11:20:38;;;;;;;12.85;7.07;;;;;;;17.28;82.04;98641.84;5071352;28;20039;-75
2023/10/09 11:25:49;;;;;;;15.50;7.10;;;;;;;17.33;82.15;98663.59;5043591;28;20040;-74
2023/10/09 11:31:11;;;;;;;12.55;6.93;;;;;;;17.26;82.58;98680.22;5072109;28;20031;-73
2023/10/09 11:34:06;;;;;;;17.52;7.30;;;;;;;17.20;82.44;98696.81;5070353;28;20397;-73
2023/10/09 11:36:34;;;;;;;15.32;7.90;;;;;;;17.22;83.25;98702.84;5053438;28;20066;-75
2023/10/09 11:39:31;;;;;;;15.00;8.30;;;;;;;17.14;83.10;98697.94;5053932;28;20028;-76
2023/10/09 11:42:07;;;;;;;14.65;8.55;;;;;;;17.07;83.52;98679.19;5040766;28;20115;-76
2023/10/09 11:44:45;;;;;;;15.18;8.07;;;;;;;17.06;83.70;98652.25;5053045;28;20037;-76
2023/10/09 11:54:58;;;;;;;16.17;9.38;;;;;;;17.24;84.24;98668.00;5041699;28;20507;-76
2023/10/09 11:57:30;;;;;;;13.85;9.35;;;;;;;17.31;84.53;98624.13;5033198;28;20020;-74
2023/10/09 11:59:57;;;;;;;17.15;8.35;;;;;;;17.25;84.91;98572.41;5030681;28;20076;-74
2023/10/09 12:02:22;;;;;;;17.50;8.55;;;;;;;17.33;85.11;98581.09;5064337;28;20637;-73
2023/10/09 12:04:48;;;;;;;16.85;9.18;;;;;;;17.33;85.43;98565.59;5048987;28;20033;-71
2023/10/09 12:07:14;;;;;;;15.48;9.25;;;;;;;17.23;85.55;98528.34;5063566;28;20021;-79
2023/10/09 12:09:40;;;;;;;15.70;8.77;;;;;;;17.32;85.39;98531.28;5052898;28;20036;-73
2023/10/09 12:12:07;;;;;;;13.18;9.02;;;;;;;17.17;85.60;98507.69;5029472;28;20460;-72
2023/10/09 12:14:33;;;;;;;15.73;8.85;;;;;;;17.23;85.58;98508.47;5053204;28;20386;-73
2023/10/09 12:17:05;;;;;;;16.73;8.57;;;;;;;17.17;85.67;98494.06;5050955;28;20079;-73
2023/10/09 12:19:39;;;;;;;17.40;9.02;;;;;;;17.09;85.18;98477.50;5049707;28;20037;-72
2023/10/09 12:22:06;;;;;;;15.23;9.13;;;;;;;17.03;86.08;98474.00;5048038;28;20033;-73
2023/10/09 12:24:33;;;;;;;17.80;8.35;;;;;;;16.98;86.30;98484.91;5044703;28;20020;-75
2023/10/09 12:26:59;;;;;;;20.83;9.80;;;;;;;16.90;86.53;98473.75;5053388;28;20119;-73
2023/10/09 12:29:29;;;;;;;16.42;9.25;;;;;;;16.89;86.55;98478.41;5071254;28;20463;-73
2023/10/09 12:31:59;;;;;;;14.20;8.82;;;;;;;17.01;86.83;98478.09;5053964;28;20067;-72
2023/10/09 12:34:27;;;;;;;19.48;9.32;;;;;;;16.93;87.03;98492.25;5050589;28;20422;-73
2023/10/09 12:36:54;;;;;;;15.00;9.45;;;;;;;16.89;87.18;98467.53;5052496;28;20029;-73
2023/10/09 12:39:22;;;;;;;16.70;9.48;;;;;;;17.12;87.02;98477.75;5070160;28;20040;-72
2023/10/09 12:41:48;;;;;;;17.40;8.68;;;;;;;17.27;86.70;98490.47;5070219;28;20044;-73
2023/10/09 12:44:18;;;;;;;17.05;8.48;;;;;;;17.35;86.33;98547.06;5071615;28;20040;-73
2023/10/09 12:46:51;;;;;;;16.75;8.98;;;;;;;17.41;85.97;98507.81;5037558;28;20058;-73
2023/10/09 12:49:26;;;;;;;13.73;7.80;;;;;;;17.28;85.78;98481.22;5049890;28;20047;-73
2023/10/09 12:51:52;;;;;;;17.40;8.80;;;;;;;17.62;85.66;98525.69;5060225;28;20048;-70
2023/10/09 12:54:24;;;;;;;22.58;8.38;;;;;;;17.57;84.91;98517.59;5051305;28;20021;-73
2023/10/09 12:56:49;;;;;;;16.38;7.82;;;;;;;17.75;84.63;98530.53;5037637;28;20039;-74
2023/10/09 12:59:14;;;;;;;15.18;7.93;;;;;;;17.78;84.27;98521.78;5071128;28;20024;-74
2023/10/09 13:01:43;;;;;;;13.88;8.30;;;;;;;17.90;84.22;98527.69;5050113;28;20037;-73
2023/10/09 13:04:21;;;;;;;15.57;8.48;;;;;;;17.99;84.25;98536.09;5068457;28;20028;-74
2023/10/09 13:06:48;;;;;;;19.30;8.55;;;;;;;17.83;84.49;98521.75;5071124;28;20059;-73
2023/10/09 13:09:15;;;;;;;20.33;8.60;;;;;;;17.85;84.12;98514.09;5053125;28;20073;-73
2023/10/09 13:11:42;;;;;;;19.02;9.60;;;;;;;17.94;84.06;98525.22;5049978;28;20447;-74
2023/10/09 13:14:16;;;;;;;17.55;9.00;;;;;;;18.06;83.59;98535.78;5032576;28;20374;-75
2023/10/09 13:16:45;;;;;;;23.08;10.10;;;;;;;18.02;83.85;98515.63;5047778;28;20402;-74
2023/10/09 13:19:10;;;;;;;32.63;10.93;;;;;;;17.94;83.72;98512.44;5016489;28;20021;-75
2023/10/09 13:21:40;;;;;;;18.42;8.48;;;;;;;18.01;84.06;98533.09;5064649;28;20115;-75
2023/10/09 13:24:12;;;;;;;18.17;8.88;;;;;;;18.06;83.86;98538.50;5033008;28;20115;-74
2023/10/09 13:26:38;;;;;;;24.85;12.75;;;;;;;18.14;83.77;98541.41;5032194;28;20032;-75
2023/10/09 13:29:03;;;;;;;30.08;9.52;;;;;;;18.19;83.62;98535.13;5070637;28;20025;-75
2023/10/09 13:31:31;;;;;;;32.15;9.57;;;;;;;18.20;83.57;98517.66;5073299;28;20480;-74
2023/10/09 13:33:58;;;;;;;15.25;7.82;;;;;;;18.14;83.47;98510.63;5074954;28;20032;-74
2023/10/09 13:36:31;;;;;;;24.38;8.07;;;;;;;18.26;83.27;98530.16;5057102;28;20028;-75
2023/10/09 13:38:57;;;;;;;16.52;8.90;;;;;;;18.31;82.84;98530.09;5053285;28;20037;-74
2023/10/09 13:41:29;;;;;;;21.95;10.60;;;;;;;18.20;83.00;98515.75;5068106;28;20029;-74
2023/10/09 13:43:56;;;;;;;14.02;8.75;;;;;;;18.16;83.04;98516.59;5030140;28;20434;-74
2023/10/09 13:46:22;;;;;;;13.57;7.70;;;;;;;18.25;83.05;98539.44;5057047;28;20051;-71
2023/10/09 13:48:49;;;;;;;17.40;7.82;;;;;;;18.04;82.98;98511.50;5074295;28;20037;-75
2023/10/09 13:51:17;;;;;;;16.13;8.82;;;;;;;18.32;83.22;98545.38;5056962;28;20094;-74
2023/10/09 13:53:47;;;;;;;18.50;8.57;;;;;;;18.32;82.65;98529.03;5072314;28;20124;-74
2023/10/09 13:56:21;;;;;;;20.55;8.65;;;;;;;18.45;82.58;98555.63;5036811;28;20052;-74
2023/10/09 13:58:50;;;;;;;17.60;9.15;;;;;;;18.45;82.49;98561.06;5048926;28;20439;-75
2023/10/09 14:01:27;;;;;;;20.27;10.40;;;;;;;18.44;82.63;98538.44;5074349;28;20445;-75
2023/10/09 14:03:57;;;;;;;18.77;9.75;;;;;;;18.56;82.60;98551.72;5057864;28;20119;-74
2023/10/09 14:06:32;;;;;;;19.02;9.48;;;;;;;18.49;82.70;98549.34;5056362;28;20028;-75
2023/10/09 14:09:09;;;;;;;13.18;7.80;;;;;;;18.50;82.24;98548.25;5039039;28;20036;-75
2023/10/09 14:11:39;;;;;;;18.90;7.85;;;;;;;18.56;82.17;98562.63;5074372;28;20170;-74
2023/10/09 14:14:09;;;;;;;19.77;7.78;;;;;;;18.63;82.08;98574.03;5053007;28;20033;-76
2023/10/09 14:16:35;;;;;;;17.92;7.85;;;;;;;18.50;81.57;98569.25;5032269;28;20084;-75
2023/10/09 14:19:01;;;;;;;15.70;7.68;;;;;;;18.41;81.72;98554.56;5073847;28;20021;-74
2023/10/09 14:21:30;;;;;;;18.23;7.90;;;;;;;18.60;81.55;98585.50;5036223;28;20028;-74
2023/10/09 14:23:57;;;;;;;13.13;7.13;;;;;;;18.65;81.34;98587.41;5055705;28;20032;-74
2023/10/09 14:26:26;;;;;;;19.73;7.10;;;;;;;18.65;81.29;98587.41;5055862;28;20504;-76
2023/10/09 14:28:53;;;;;;;13.65;6.95;;;;;;;18.58;81.22;98576.78;5039046;28;20027;-74
2023/10/09 14:31:26;;;;;;;14.82;6.85;;;;;;;18.52;80.90;98567.03;5073908;28;20804;-75
2023/10/09 14:33:53;;;;;;;13.70;7.10;;;;;;;18.60;81.17;98591.78;5043534;28;20488;-74
2023/10/09 14:36:18;;;;;;;18.98;9.60;;;;;;;18.49;81.39;98570.34;5053284;28;20024;-75
2023/10/09 14:38:46;;;;;;;16.27;8.13;;;;;;;18.55;81.58;98582.84;5073409;28;20044;-74
2023/10/09 14:41:12;;;;;;;16.35;7.30;;;;;;;18.46;81.10;98579.13;5073536;28;20059;-74
2023/10/09 14:43:38;;;;;;;14.98;8.45;;;;;;;18.52;81.56;98561.59;5035953;28;20115;-75